createdAt,value
2022-10-30T00:02:25.753Z,13.60
2022-10-30T00:04:52.174Z,15.52
2022-10-30T00:07:18.576Z,14.82
2022-10-30T00:09:44.952Z,16.58
2022-10-30T00:12:11.359Z,16.90
2022-10-30T00:14:37.680Z,12.23
2022-10-30T00:17:04.113Z,14.52
2022-10-30T00:19:31.450Z,18.00
2022-10-30T00:24:23.476Z,14.15
2022-10-30T00:26:49.840Z,16.25
2022-10-30T00:29:16.227Z,18.85
2022-10-30T00:31:42.596Z,17.70
2022-10-30T00:34:08.930Z,19.80
2022-10-30T00:36:35.791Z,14.50
2022-10-30T00:39:02.191Z,19.58
2022-10-30T00:41:28.575Z,10.88
2022-10-30T00:43:56.210Z,13.98
2022-10-30T00:46:28.524Z,12.95
2022-10-30T00:48:59.363Z,16.48
2022-10-30T00:51:27.676Z,13.65
2022-10-30T00:53:55.792Z,15.27
2022-10-30T00:56:23.445Z,14.00
2022-10-30T00:58:55.335Z,20.63
2022-10-30T01:01:24.190Z,14.98
2022-10-30T01:03:51.718Z,15.52
2022-10-30T01:06:18.620Z,19.13
2022-10-30T01:08:46.014Z,21.10
2022-10-30T01:11:12.666Z,20.50
2022-10-30T01:13:41.653Z,16.08
2022-10-30T01:16:25.311Z,15.73
2022-10-30T01:18:54.663Z,17.80
2022-10-30T01:21:33.909Z,14.05
2022-10-30T01:24:18.692Z,12.95
2022-10-30T01:26:52.763Z,16.42
2022-10-30T01:29:42.687Z,14.90
2022-10-30T01:32:15.383Z,15.88
2022-10-30T01:35:02.230Z,16.07
2022-10-30T01:37:33.171Z,12.60
2022-10-30T01:40:04.264Z,11.20
2022-10-30T01:42:50.518Z,14.27
2022-10-30T01:45:40.646Z,14.30
2022-10-30T01:48:20.254Z,18.35
2022-10-30T01:51:03.937Z,15.43
2022-10-30T01:53:52.858Z,15.48
2022-10-30T01:56:19.384Z,15.80
2022-10-30T01:59:00.763Z,10.07
2022-10-30T02:01:28.640Z,12.32
2022-10-30T02:03:56.655Z,17.88
2022-10-30T02:06:23.263Z,19.42
2022-10-30T02:08:50.418Z,17.90
2022-10-30T02:11:17.095Z,14.70
2022-10-30T02:13:43.540Z,15.25
2022-10-30T02:16:10.352Z,15.00
2022-10-30T02:18:36.801Z,11.25
2022-10-30T02:21:03.633Z,14.85
2022-10-30T02:23:30.079Z,15.15
2022-10-30T02:25:57.079Z,12.57
2022-10-30T02:28:23.739Z,12.93
2022-10-30T02:30:50.187Z,14.27
2022-10-30T02:35:48.179Z,19.33
2022-10-30T02:38:14.799Z,20.65
2022-10-30T02:40:41.315Z,18.88
2022-10-30T02:43:07.738Z,13.45
2022-10-30T02:45:34.802Z,15.98
2022-10-30T02:48:02.218Z,13.23
2022-10-30T02:50:29.595Z,14.65
2022-10-30T02:52:56.284Z,18.08
2022-10-30T02:55:22.916Z,16.92
2022-10-30T02:57:50.883Z,15.25
2022-10-30T03:00:17.795Z,13.85
2022-10-30T03:02:44.334Z,17.10
2022-10-30T03:05:10.917Z,18.35
2022-10-30T03:07:37.350Z,13.32
2022-10-30T03:10:03.900Z,17.60
2022-10-30T03:12:32.573Z,11.60
2022-10-30T03:14:59.971Z,13.02
2022-10-30T03:17:26.542Z,12.35
2022-10-30T03:19:52.992Z,13.15
2022-10-30T03:22:20.431Z,14.15
2022-10-30T03:24:46.995Z,16.65
2022-10-30T03:27:13.362Z,20.80
2022-10-30T03:29:39.699Z,14.90
2022-10-30T03:32:12.314Z,16.50
2022-10-30T03:34:45.550Z,13.85
2022-10-30T03:37:11.879Z,20.67
2022-10-30T03:39:38.736Z,16.17
2022-10-30T03:42:05.138Z,14.60
2022-10-30T03:44:32.710Z,16.52
2022-10-30T03:46:59.115Z,21.45
2022-10-30T03:49:32.864Z,12.45
2022-10-30T03:52:02.489Z,16.20
2022-10-30T03:54:28.915Z,13.80
2022-10-30T03:56:55.237Z,17.48
2022-10-30T03:59:24.272Z,20.05
2022-10-30T04:02:17.116Z,17.45
2022-10-30T04:04:43.707Z,11.70
2022-10-30T04:07:10.244Z,17.85
2022-10-30T04:09:36.918Z,13.65
2022-10-30T04:12:04.502Z,12.88
2022-10-30T04:14:31.119Z,12.80
2022-10-30T04:16:57.619Z,13.20
2022-10-30T04:19:24.040Z,13.95
2022-10-30T04:21:51.227Z,16.23
2022-10-30T04:24:18.737Z,14.23
2022-10-30T04:26:47.878Z,15.98
2022-10-30T04:29:14.283Z,12.00
2022-10-30T04:31:40.608Z,15.82
2022-10-30T04:34:06.949Z,13.18
2022-10-30T04:36:34.025Z,14.10
2022-10-30T04:39:01.768Z,14.88
2022-10-30T04:41:28.336Z,15.52
2022-10-30T04:44:01.540Z,12.57
2022-10-30T04:46:31.461Z,14.02
2022-10-30T04:49:04.483Z,11.05
2022-10-30T04:51:30.912Z,14.88
2022-10-30T04:53:58.635Z,16.73
2022-10-30T04:56:26.352Z,23.98
2022-10-30T04:58:53.409Z,13.35
2022-10-30T05:01:20.426Z,15.98
2022-10-30T05:03:49.322Z,14.15
2022-10-30T05:06:21.894Z,14.13
2022-10-30T05:08:48.602Z,18.65
2022-10-30T05:11:27.816Z,13.68
2022-10-30T05:13:55.625Z,14.68
2022-10-30T05:16:21.982Z,12.75
2022-10-30T05:18:48.411Z,16.77
2022-10-30T05:21:14.862Z,17.10
2022-10-30T05:23:41.322Z,17.02
2022-10-30T05:26:07.908Z,12.90
2022-10-30T05:28:34.448Z,14.73
2022-10-30T05:31:00.896Z,16.95
2022-10-30T05:34:06.156Z,11.65
2022-10-30T05:36:33.981Z,16.15
2022-10-30T05:39:02.812Z,18.00
2022-10-30T05:41:32.903Z,18.65
2022-10-30T05:43:59.249Z,12.63
2022-10-30T05:46:26.168Z,22.55
2022-10-30T05:48:53.955Z,14.68
2022-10-30T05:51:21.732Z,21.15
2022-10-30T05:53:52.618Z,34.60
2022-10-30T05:56:21.926Z,33.10
2022-10-30T05:58:50.271Z,33.40
2022-10-30T06:01:17.371Z,28.85
2022-10-30T06:03:48.702Z,30.90
2022-10-30T06:06:15.956Z,27.33
2022-10-30T06:08:43.718Z,40.05
2022-10-30T06:11:27.195Z,26.65
2022-10-30T06:13:55.971Z,26.85
2022-10-30T06:16:34.687Z,26.35
2022-10-30T06:19:19.663Z,18.42
2022-10-30T06:21:49.435Z,19.23
2022-10-30T06:24:32.837Z,16.70
2022-10-30T06:27:18.688Z,16.70
2022-10-30T06:29:49.008Z,20.15
2022-10-30T06:32:15.920Z,15.00
2022-10-30T06:34:44.827Z,16.45
2022-10-30T06:37:12.846Z,17.98
2022-10-30T06:39:40.802Z,19.60
2022-10-30T06:42:28.707Z,12.75
2022-10-30T06:45:06.502Z,17.45
2022-10-30T06:47:37.368Z,16.92
2022-10-30T06:50:04.460Z,16.25
2022-10-30T06:52:30.807Z,18.63
2022-10-30T06:54:57.251Z,16.50
2022-10-30T06:58:02.550Z,15.63
2022-10-30T07:00:53.251Z,17.10
2022-10-30T07:03:52.033Z,21.65
2022-10-30T07:06:18.396Z,15.90
2022-10-30T07:08:44.738Z,16.30
2022-10-30T07:11:13.138Z,19.63
2022-10-30T07:14:02.651Z,16.13
2022-10-30T07:16:54.110Z,16.92
2022-10-30T07:19:20.537Z,14.73
2022-10-30T07:21:46.991Z,15.70
2022-10-30T07:24:13.428Z,17.80
2022-10-30T07:26:49.570Z,21.33
2022-10-30T07:29:35.550Z,13.65
2022-10-30T07:32:16.823Z,13.77
2022-10-30T07:35:09.485Z,15.13
2022-10-30T07:37:54.430Z,13.15
2022-10-30T07:40:28.595Z,14.88
2022-10-30T07:43:15.991Z,10.98
2022-10-30T07:46:21.368Z,14.25
2022-10-30T07:49:08.063Z,16.80
2022-10-30T07:51:48.903Z,15.93
2022-10-30T07:54:15.772Z,18.63
2022-10-30T07:56:42.655Z,17.77
2022-10-30T07:59:17.735Z,16.08
2022-10-30T08:02:04.466Z,18.70
2022-10-30T08:04:39.311Z,13.88
2022-10-30T08:07:22.212Z,14.27
2022-10-30T08:09:49.499Z,18.20
2022-10-30T08:12:16.893Z,18.42
2022-10-30T08:14:43.288Z,17.23
2022-10-30T08:17:10.611Z,14.45
2022-10-30T08:19:38.343Z,12.90
2022-10-30T08:22:04.916Z,17.13
2022-10-30T08:24:35.196Z,19.50
2022-10-30T08:27:02.090Z,19.33
2022-10-30T08:29:28.567Z,17.42
2022-10-30T08:31:55.434Z,19.70
2022-10-30T08:34:21.920Z,19.13
2022-10-30T08:36:55.238Z,14.57
2022-10-30T08:39:22.279Z,16.88
2022-10-30T08:41:57.136Z,14.70
2022-10-30T08:44:23.635Z,18.65
2022-10-30T08:47:08.211Z,20.10
2022-10-30T08:49:35.274Z,20.70
2022-10-30T08:52:07.370Z,18.67
2022-10-30T08:54:33.766Z,17.05
2022-10-30T08:57:00.741Z,16.83
2022-10-30T08:59:27.134Z,15.55
2022-10-30T09:01:57.578Z,18.17
2022-10-30T09:04:44.079Z,15.55
2022-10-30T09:07:28.930Z,17.77
2022-10-30T09:10:15.340Z,16.77
2022-10-30T09:12:42.286Z,22.13
2022-10-30T09:15:08.853Z,19.25
2022-10-30T09:17:46.302Z,19.83
2022-10-30T09:20:12.748Z,15.63
2022-10-30T09:22:42.574Z,21.63
2022-10-30T09:25:09.827Z,14.07
2022-10-30T09:27:47.080Z,18.92
2022-10-30T09:30:14.206Z,21.95
2022-10-30T09:32:44.151Z,17.25
2022-10-30T09:35:15.672Z,15.98
2022-10-30T09:37:43.746Z,17.08
2022-10-30T09:40:21.845Z,15.85
2022-10-30T09:42:49.658Z,19.83
2022-10-30T09:45:30.432Z,20.27
2022-10-30T09:48:17.539Z,20.05
2022-10-30T09:51:03.363Z,18.27
2022-10-30T09:53:30.332Z,21.92
2022-10-30T09:56:21.051Z,18.00
2022-10-30T09:59:06.193Z,15.50
2022-10-30T10:01:47.782Z,19.23
2022-10-30T10:04:23.936Z,19.23
2022-10-30T10:07:18.652Z,20.88
2022-10-30T10:10:13.242Z,15.73
2022-10-30T10:12:48.961Z,19.15
2022-10-30T10:15:33.862Z,21.02
2022-10-30T10:18:02.395Z,15.48
2022-10-30T10:20:28.774Z,13.07
2022-10-30T10:22:57.762Z,23.00
2022-10-30T10:25:24.791Z,15.45
2022-10-30T10:28:03.147Z,18.70
2022-10-30T10:30:45.262Z,19.23
2022-10-30T10:33:26.986Z,18.15
2022-10-30T10:35:56.440Z,19.70
2022-10-30T10:38:41.531Z,16.92
2022-10-30T10:41:12.848Z,15.20
2022-10-30T10:44:14.466Z,16.27
2022-10-30T10:46:40.839Z,19.00
2022-10-30T10:49:21.111Z,21.70
2022-10-30T10:51:50.142Z,18.73
2022-10-30T10:54:18.285Z,17.08
2022-10-30T10:56:46.786Z,15.98
2022-10-30T10:59:18.692Z,16.00
2022-10-30T11:01:58.840Z,17.95
2022-10-30T11:04:32.258Z,15.52
2022-10-30T11:06:59.171Z,17.13
2022-10-30T11:09:29.460Z,17.48
2022-10-30T11:11:56.238Z,21.73
2022-10-30T11:14:29.001Z,15.40
2022-10-30T11:17:10.550Z,20.00
2022-10-30T11:19:36.854Z,18.80
2022-10-30T11:22:04.013Z,14.25
2022-10-30T11:24:34.511Z,18.60
2022-10-30T11:27:17.548Z,15.13
2022-10-30T11:30:03.141Z,17.60
2022-10-30T11:32:30.660Z,15.65
2022-10-30T11:35:01.899Z,14.32
2022-10-30T11:37:32.756Z,16.25
2022-10-30T11:40:03.988Z,16.90
2022-10-30T11:42:30.476Z,18.17
2022-10-30T11:44:56.870Z,16.45
2022-10-30T11:47:29.013Z,16.75
2022-10-30T11:52:22.558Z,22.35
2022-10-30T11:54:50.713Z,21.83
2022-10-30T11:57:20.058Z,18.70
2022-10-30T11:59:47.273Z,23.88
2022-10-30T12:05:23.984Z,16.65
2022-10-30T12:07:50.320Z,19.65
2022-10-30T12:10:26.817Z,14.93
2022-10-30T12:12:53.256Z,19.35
2022-10-30T12:15:21.319Z,15.75
2022-10-30T12:17:55.224Z,19.45
2022-10-30T12:20:21.760Z,20.98
2022-10-30T12:22:48.935Z,17.33
2022-10-30T12:25:18.307Z,23.40
2022-10-30T12:27:44.880Z,16.17
2022-10-30T12:30:18.384Z,22.10
2022-10-30T12:32:53.881Z,18.83
2022-10-30T12:35:35.535Z,17.73
2022-10-30T12:38:03.075Z,16.90
2022-10-30T12:40:36.514Z,15.85
2022-10-30T12:43:08.344Z,13.68
2022-10-30T12:45:37.355Z,17.77
2022-10-30T12:48:09.005Z,15.90
2022-10-30T12:50:48.876Z,16.02
2022-10-30T12:53:35.930Z,19.00
2022-10-30T12:56:05.086Z,18.20
2022-10-30T12:58:42.930Z,15.27
2022-10-30T13:01:34.599Z,19.95
2022-10-30T13:04:09.340Z,14.77
2022-10-30T13:06:41.734Z,13.40
2022-10-30T13:11:53.370Z,17.75
2022-10-30T13:14:21.928Z,18.13
2022-10-30T13:16:50.494Z,15.50
2022-10-30T13:19:16.895Z,16.05
2022-10-30T13:21:58.629Z,14.85
2022-10-30T13:24:34.202Z,21.07
2022-10-30T13:27:03.235Z,14.63
2022-10-30T13:29:33.781Z,23.33
2022-10-30T13:32:12.894Z,14.02
2022-10-30T13:34:57.998Z,17.10
2022-10-30T13:37:29.888Z,14.35
2022-10-30T13:40:10.889Z,18.67
2022-10-30T13:42:50.585Z,18.67
2022-10-30T13:45:27.168Z,19.05
2022-10-30T13:48:11.936Z,17.65
2022-10-30T13:50:47.500Z,15.00
2022-10-30T13:53:17.428Z,18.58
2022-10-30T13:55:44.751Z,18.38
2022-10-30T13:58:11.114Z,16.95
2022-10-30T14:00:50.334Z,17.88
2022-10-30T14:03:16.695Z,19.08
2022-10-30T14:05:53.137Z,16.10
2022-10-30T14:08:38.286Z,18.92
2022-10-30T14:11:05.842Z,17.73
2022-10-30T14:13:34.955Z,22.73
2022-10-30T14:16:02.256Z,14.43
2022-10-30T14:18:29.963Z,15.00
2022-10-30T14:20:57.571Z,15.52
2022-10-30T14:23:34.759Z,20.83
2022-10-30T14:26:04.245Z,17.33
2022-10-30T14:28:31.440Z,15.25
2022-10-30T14:31:07.783Z,18.60
2022-10-30T14:33:41.064Z,12.38
2022-10-30T14:36:14.925Z,15.60
2022-10-30T14:38:41.344Z,15.10
2022-10-30T14:41:24.675Z,15.48
2022-10-30T14:44:03.280Z,16.38
2022-10-30T14:46:35.392Z,16.48
2022-10-30T14:49:12.350Z,19.55
2022-10-30T14:51:42.183Z,12.73
2022-10-30T14:54:15.664Z,14.88
2022-10-30T14:56:47.259Z,15.52
2022-10-30T14:59:13.654Z,14.68
2022-10-30T15:01:55.359Z,15.40
2022-10-30T15:04:21.852Z,13.17
2022-10-30T15:06:57.232Z,13.93
2022-10-30T15:09:32.769Z,13.30
2022-10-30T15:11:59.362Z,13.85
2022-10-30T15:14:40.464Z,14.70
2022-10-30T15:17:32.823Z,12.65
2022-10-30T15:20:00.578Z,12.48
2022-10-30T15:22:28.527Z,18.33
2022-10-30T15:24:55.100Z,18.17
2022-10-30T15:27:22.636Z,19.15
2022-10-30T15:29:51.728Z,17.25
2022-10-30T15:32:19.655Z,18.05
2022-10-30T15:35:15.522Z,17.38
2022-10-30T15:37:55.843Z,17.63
2022-10-30T15:40:22.347Z,14.18
2022-10-30T15:42:49.686Z,17.73
2022-10-30T15:45:18.048Z,19.92
2022-10-30T15:47:48.455Z,16.33
2022-10-30T15:50:16.058Z,14.57
2022-10-30T15:52:42.744Z,20.02
2022-10-30T15:55:12.951Z,17.02
2022-10-30T15:58:12.972Z,12.02
2022-10-30T16:00:35.287Z,15.57
2022-10-30T16:03:06.422Z,12.95
2022-10-30T16:05:33.352Z,13.77
2022-10-30T16:08:01.794Z,12.45
2022-10-30T16:10:31.979Z,11.27
2022-10-30T16:12:58.867Z,10.35
2022-10-30T16:15:30.802Z,11.85
2022-10-30T16:18:03.107Z,16.25
2022-10-30T16:20:29.982Z,10.35
2022-10-30T16:22:56.463Z,16.00
2022-10-30T16:25:22.958Z,15.82
2022-10-30T16:27:49.275Z,13.20
2022-10-30T16:30:16.173Z,16.05
2022-10-30T16:32:44.907Z,18.35
2022-10-30T16:35:11.678Z,17.30
2022-10-30T16:37:39.264Z,13.77
2022-10-30T16:40:10.258Z,23.17
2022-10-30T16:42:36.708Z,12.65
2022-10-30T16:45:12.237Z,16.38
2022-10-30T16:47:39.306Z,21.30
2022-10-30T16:50:06.743Z,34.40
2022-10-30T16:52:35.439Z,16.80
2022-10-30T16:55:03.825Z,21.63
2022-10-30T16:57:32.348Z,37.63
2022-10-30T16:59:59.931Z,35.55
2022-10-30T17:02:27.741Z,29.88
2022-10-30T17:04:58.195Z,31.67
2022-10-30T17:07:26.059Z,20.98
2022-10-30T17:09:53.211Z,20.58
2022-10-30T17:12:23.521Z,18.95
2022-10-30T17:14:51.634Z,16.63
2022-10-30T17:17:44.326Z,21.67
2022-10-30T17:22:42.247Z,18.05
2022-10-30T17:25:26.904Z,19.17
2022-10-30T17:27:53.316Z,15.82
2022-10-30T17:30:34.483Z,16.48
2022-10-30T17:33:02.870Z,18.48
2022-10-30T17:35:29.861Z,17.40
2022-10-30T17:37:59.684Z,17.63
2022-10-30T17:40:29.301Z,13.07
2022-10-30T17:42:55.618Z,10.27
2022-10-30T17:45:22.409Z,13.50
2022-10-30T17:47:48.831Z,9.38
2022-10-30T17:50:15.287Z,11.07
2022-10-30T17:52:41.733Z,17.83
2022-10-30T17:55:20.884Z,10.38
2022-10-30T17:57:47.411Z,14.00
2022-10-30T18:00:14.148Z,14.43
2022-10-30T18:02:41.619Z,9.80
2022-10-30T18:05:16.036Z,10.88
2022-10-30T18:07:42.448Z,8.63
2022-10-30T18:10:09.120Z,10.85
2022-10-30T18:12:35.775Z,7.75
2022-10-30T18:15:15.840Z,6.32
2022-10-30T18:17:43.154Z,7.20
2022-10-30T18:20:09.676Z,7.50
2022-10-30T18:22:36.006Z,10.35
2022-10-30T18:25:02.501Z,9.45
2022-10-30T18:27:29.912Z,8.90
2022-10-30T18:29:56.379Z,12.00
2022-10-30T18:32:22.771Z,12.30
2022-10-30T18:34:49.123Z,15.27
2022-10-30T18:37:15.469Z,9.00
2022-10-30T18:39:41.965Z,10.38
2022-10-30T18:42:08.789Z,12.18
2022-10-30T18:44:35.152Z,9.15
2022-10-30T18:47:03.187Z,8.05
2022-10-30T18:49:32.442Z,11.82
2022-10-30T18:51:58.913Z,15.57
2022-10-30T18:54:25.369Z,14.75
2022-10-30T18:56:51.699Z,12.98
2022-10-30T18:59:18.032Z,9.60
2022-10-30T19:01:44.528Z,12.75
2022-10-30T19:04:11.050Z,8.63
2022-10-30T19:06:38.647Z,7.93
2022-10-30T19:09:05.161Z,9.00
2022-10-30T19:11:32.147Z,9.10
2022-10-30T19:13:58.907Z,7.65
2022-10-30T19:16:25.839Z,8.90
2022-10-30T19:18:52.233Z,8.40
2022-10-30T19:21:20.094Z,10.98
2022-10-30T19:23:46.591Z,9.95
2022-10-30T19:26:17.014Z,8.05
2022-10-30T19:28:43.805Z,8.75
2022-10-30T19:31:13.145Z,10.25
2022-10-30T19:33:39.576Z,12.75
2022-10-30T19:36:06.018Z,11.50
2022-10-30T19:38:32.856Z,19.63
2022-10-30T19:40:59.577Z,22.83
2022-10-30T19:43:25.962Z,38.55
2022-10-30T19:45:56.812Z,32.33
2022-10-30T19:48:47.624Z,23.20
2022-10-30T19:51:11.407Z,20.38
2022-10-30T19:53:38.387Z,17.05
2022-10-30T19:56:05.070Z,13.63
2022-10-30T19:58:31.452Z,13.88
2022-10-30T20:00:57.948Z,14.98
2022-10-30T20:03:24.399Z,14.70
2022-10-30T20:05:50.843Z,15.15
2022-10-30T20:08:21.264Z,13.05
2022-10-30T20:10:58.431Z,10.82
2022-10-30T20:13:25.833Z,13.23
2022-10-30T20:15:53.342Z,19.83
2022-10-30T20:18:20.801Z,16.25
2022-10-30T20:20:57.445Z,9.23
2022-10-30T20:23:24.495Z,10.20
2022-10-30T20:25:52.342Z,9.32
2022-10-30T20:28:24.918Z,9.63
2022-10-30T20:33:19.101Z,11.65
2022-10-30T20:35:46.444Z,11.68
2022-10-30T20:38:17.712Z,11.73
2022-10-30T20:40:44.418Z,10.82
2022-10-30T20:43:15.603Z,10.20
2022-10-30T20:45:42.340Z,9.63
2022-10-30T20:48:08.780Z,12.82
2022-10-30T20:50:35.189Z,9.77
2022-10-30T20:53:01.619Z,8.68
2022-10-30T20:55:28.099Z,9.10
2022-10-30T20:57:54.668Z,15.55
2022-10-30T21:00:21.108Z,7.75
2022-10-30T21:02:47.454Z,9.13
2022-10-30T21:05:38.132Z,12.48
2022-10-30T21:08:01.126Z,10.85
2022-10-30T21:10:30.609Z,9.52
2022-10-30T21:12:58.972Z,9.15
2022-10-30T21:15:27.611Z,9.35
2022-10-30T21:17:53.980Z,12.60
2022-10-30T21:20:21.364Z,8.60
2022-10-30T21:22:47.827Z,9.65
2022-10-30T21:25:14.298Z,12.13
2022-10-30T21:27:40.671Z,9.88
2022-10-30T21:30:07.512Z,9.55
2022-10-30T21:32:33.896Z,10.38
2022-10-30T21:35:00.235Z,9.57
2022-10-30T21:37:26.562Z,9.57
2022-10-30T21:39:52.884Z,11.93
2022-10-30T21:42:19.254Z,10.45
2022-10-30T21:44:45.667Z,10.45
2022-10-30T21:47:13.442Z,10.18
2022-10-30T21:49:40.060Z,9.88
2022-10-30T21:52:07.514Z,11.10
2022-10-30T21:54:33.912Z,12.10
2022-10-30T21:57:00.322Z,15.77
2022-10-30T21:59:26.900Z,11.40
2022-10-30T22:01:53.420Z,14.07
2022-10-30T22:04:19.791Z,14.50
2022-10-30T22:06:46.274Z,14.13
2022-10-30T22:09:14.369Z,13.73
2022-10-30T22:11:40.985Z,12.27
2022-10-30T22:14:07.416Z,11.82
2022-10-30T22:16:35.823Z,14.70
2022-10-30T22:19:02.792Z,13.60
2022-10-30T22:21:29.770Z,12.35
2022-10-30T22:23:58.873Z,10.68
2022-10-30T22:26:26.548Z,11.43
2022-10-30T22:28:55.430Z,13.52
2022-10-30T22:31:22.524Z,16.10
2022-10-30T22:33:48.884Z,18.20
2022-10-30T22:36:22.620Z,11.60
2022-10-30T22:38:53.161Z,12.02
2022-10-30T22:41:20.774Z,18.00
2022-10-30T22:43:48.771Z,12.02
2022-10-30T22:46:16.193Z,12.60
2022-10-30T22:48:43.975Z,11.32
2022-10-30T22:51:15.054Z,10.18
2022-10-30T22:53:43.398Z,9.82
2022-10-30T22:56:17.435Z,8.10
2022-10-30T22:58:44.795Z,10.63
2022-10-30T23:01:12.915Z,7.30
2022-10-30T23:03:39.845Z,10.25
2022-10-30T23:06:06.527Z,10.57
2022-10-30T23:08:32.946Z,11.02
2022-10-30T23:10:59.455Z,10.07
2022-10-30T23:13:26.172Z,10.48
2022-10-30T23:15:55.183Z,8.88
2022-10-30T23:18:23.955Z,9.75
2022-10-30T23:20:50.283Z,8.43
2022-10-30T23:23:16.647Z,13.85
2022-10-30T23:25:43.113Z,10.13
2022-10-30T23:28:10.851Z,14.13
2022-10-30T23:30:40.792Z,13.05
2022-10-30T23:33:07.203Z,9.20
2022-10-30T23:35:33.579Z,9.15
2022-10-30T23:37:59.915Z,11.85
2022-10-30T23:40:26.322Z,10.77
2022-10-30T23:42:53.395Z,11.27
2022-10-30T23:45:20.243Z,10.13
2022-10-30T23:47:46.595Z,8.52
2022-10-30T23:50:13.026Z,10.68
2022-10-30T23:52:39.436Z,11.45
2022-10-30T23:55:06.046Z,12.05
2022-10-30T23:57:32.500Z,10.10
2022-10-30T23:59:58.994Z,9.30
